createdAt,value
2023-05-03T00:00:44.064Z,497.00
2023-05-03T00:01:39.054Z,502.00
2023-05-03T00:02:34.214Z,502.00
2023-05-03T00:03:29.204Z,484.00
2023-05-03T00:04:24.200Z,481.00
2023-05-03T00:05:19.688Z,482.00
2023-05-03T00:06:14.361Z,481.00
2023-05-03T00:07:09.472Z,487.00
2023-05-03T00:08:04.533Z,482.00
2023-05-03T00:08:59.610Z,479.00
2023-05-03T00:09:54.581Z,484.00
2023-05-03T00:10:49.838Z,483.00
2023-05-03T00:11:44.818Z,481.00
2023-05-03T00:12:39.826Z,484.00
2023-05-03T00:13:34.868Z,476.00
2023-05-03T00:14:30.028Z,485.00
2023-05-03T00:15:25.056Z,480.00
2023-05-03T00:16:20.313Z,481.00
2023-05-03T00:17:18.388Z,473.00
2023-05-03T00:18:13.526Z,479.00
2023-05-03T00:19:14.873Z,485.00
2023-05-03T00:20:04.770Z,486.00
2023-05-03T00:20:58.453Z,479.00
2023-05-03T00:21:53.660Z,481.00
2023-05-03T00:22:48.550Z,486.00
2023-05-03T00:23:43.687Z,486.00
2023-05-03T00:24:38.802Z,481.00
2023-05-03T00:25:33.802Z,490.00
2023-05-03T00:26:29.053Z,482.00
2023-05-03T00:27:23.887Z,483.00
2023-05-03T00:28:19.329Z,486.00
2023-05-03T00:29:14.506Z,482.00
2023-05-03T00:30:09.622Z,482.00
2023-05-03T00:31:05.432Z,480.00
2023-05-03T00:32:00.634Z,484.00
2023-05-03T00:32:56.291Z,485.00
2023-05-03T00:33:51.276Z,476.00
2023-05-03T00:34:46.646Z,479.00
2023-05-03T00:35:42.200Z,483.00
2023-05-03T00:36:37.417Z,479.00
2023-05-03T00:37:32.711Z,478.00
2023-05-03T00:38:28.826Z,480.00
2023-05-03T00:39:23.965Z,480.00
2023-05-03T00:40:19.853Z,473.00
2023-05-03T00:41:14.968Z,483.00
2023-05-03T00:42:10.155Z,480.00
2023-05-03T00:43:05.975Z,480.00
2023-05-03T00:44:01.287Z,481.00
2023-05-03T00:44:57.108Z,482.00
2023-05-03T00:45:55.319Z,479.00
2023-05-03T00:46:48.434Z,478.00
2023-05-03T00:47:43.627Z,480.00
2023-05-03T00:48:38.504Z,477.00
2023-05-03T00:49:33.875Z,478.00
2023-05-03T00:50:29.899Z,474.00
2023-05-03T00:51:25.102Z,469.00
2023-05-03T00:52:21.082Z,475.00
2023-05-03T00:53:16.080Z,472.00
2023-05-03T00:54:11.396Z,469.00
2023-05-03T00:55:07.057Z,473.00
2023-05-03T00:56:02.238Z,477.00
2023-05-03T00:56:58.108Z,478.00
2023-05-03T00:57:53.170Z,478.00
2023-05-03T00:58:48.468Z,479.00
2023-05-03T00:59:44.172Z,475.00
2023-05-03T01:00:39.359Z,476.00
2023-05-03T01:01:34.414Z,473.00
2023-05-03T01:02:31.068Z,475.00
2023-05-03T01:03:26.010Z,475.00
2023-05-03T01:04:21.761Z,475.00
2023-05-03T01:05:16.900Z,480.00
2023-05-03T01:06:11.955Z,476.00
2023-05-03T01:07:07.859Z,480.00
2023-05-03T01:08:03.065Z,470.00
2023-05-03T01:08:58.803Z,472.00
2023-05-03T01:09:53.987Z,472.00
2023-05-03T01:10:49.192Z,468.00
2023-05-03T01:11:45.106Z,479.00
2023-05-03T01:12:40.473Z,477.00
2023-05-03T01:13:35.656Z,478.00
2023-05-03T01:14:31.946Z,482.00
2023-05-03T01:15:27.187Z,475.00
2023-05-03T01:16:22.941Z,471.00
2023-05-03T01:17:18.218Z,470.00
2023-05-03T01:18:13.243Z,482.00
2023-05-03T01:19:08.344Z,477.00
2023-05-03T01:20:05.364Z,470.00
2023-05-03T01:21:00.038Z,481.00
2023-05-03T01:21:55.112Z,471.00
2023-05-03T01:22:51.389Z,479.00
2023-05-03T01:23:46.596Z,471.00
2023-05-03T01:24:41.744Z,473.00
2023-05-03T01:25:38.126Z,478.00
2023-05-03T01:26:33.383Z,474.00
2023-05-03T01:27:29.424Z,481.00
2023-05-03T01:28:24.238Z,477.00
2023-05-03T01:29:19.245Z,475.00
2023-05-03T01:30:15.090Z,475.00
2023-05-03T01:31:10.339Z,471.00
2023-05-03T01:32:06.375Z,476.00
2023-05-03T01:33:01.475Z,472.00
2023-05-03T01:33:56.374Z,468.00
2023-05-03T01:34:52.301Z,473.00
2023-05-03T01:35:47.429Z,472.00
2023-05-03T01:36:42.512Z,468.00
2023-05-03T01:37:37.738Z,470.00
2023-05-03T01:38:32.934Z,466.00
2023-05-03T01:39:27.985Z,465.00
2023-05-03T01:40:22.975Z,466.00
2023-05-03T01:41:19.377Z,467.00
2023-05-03T01:42:14.528Z,467.00
2023-05-03T01:43:09.701Z,468.00
2023-05-03T01:44:05.421Z,467.00
2023-05-03T01:45:00.741Z,462.00
2023-05-03T01:45:55.823Z,468.00
2023-05-03T01:46:50.929Z,463.00
2023-05-03T01:47:47.020Z,469.00
2023-05-03T01:48:41.045Z,464.00
2023-05-03T01:49:36.023Z,466.00
2023-05-03T01:51:56.670Z,464.00
2023-05-03T01:52:51.791Z,465.00
2023-05-03T01:53:46.750Z,464.00
2023-05-03T01:54:41.846Z,460.00
2023-05-03T01:55:36.990Z,467.00
2023-05-03T01:56:32.071Z,463.00
2023-05-03T01:57:27.209Z,465.00
2023-05-03T01:58:22.426Z,471.00
2023-05-03T01:59:17.434Z,464.00
2023-05-03T02:00:12.541Z,466.00
2023-05-03T02:01:07.790Z,462.00
2023-05-03T02:02:02.950Z,464.00
2023-05-03T02:02:58.124Z,466.00
2023-05-03T02:03:53.204Z,458.00
2023-05-03T02:04:48.339Z,467.00
2023-05-03T02:05:43.388Z,464.00
2023-05-03T02:06:38.479Z,464.00
2023-05-03T02:07:33.540Z,459.00
2023-05-03T02:08:28.679Z,461.00
2023-05-03T02:09:23.734Z,470.00
2023-05-03T02:10:18.865Z,467.00
2023-05-03T02:11:13.921Z,466.00
2023-05-03T02:12:09.194Z,464.00
2023-05-03T02:13:04.138Z,475.00
2023-05-03T02:13:59.401Z,471.00
2023-05-03T02:14:54.360Z,468.00
2023-05-03T02:15:49.457Z,474.00
2023-05-03T02:16:44.536Z,468.00
2023-05-03T02:17:39.695Z,468.00
2023-05-03T02:18:34.778Z,472.00
2023-05-03T02:19:29.976Z,469.00
2023-05-03T02:20:24.997Z,464.00
2023-05-03T02:21:20.113Z,457.00
2023-05-03T02:22:15.317Z,462.00
2023-05-03T02:23:10.471Z,463.00
2023-05-03T02:24:05.698Z,465.00
2023-05-03T02:25:00.623Z,468.00
2023-05-03T02:25:55.779Z,464.00
2023-05-03T02:26:50.977Z,460.00
2023-05-03T02:27:45.988Z,465.00
2023-05-03T02:28:41.400Z,467.00
2023-05-03T02:29:36.333Z,467.00
2023-05-03T02:30:31.530Z,467.00
2023-05-03T02:31:26.754Z,468.00
2023-05-03T02:32:22.092Z,468.00
2023-05-03T02:33:17.160Z,466.00
2023-05-03T02:34:12.549Z,462.00
2023-05-03T02:35:07.437Z,468.00
2023-05-03T02:36:02.610Z,468.00
2023-05-03T02:36:57.731Z,466.00
2023-05-03T02:37:52.925Z,461.00
2023-05-03T02:38:48.042Z,462.00
2023-05-03T02:39:43.368Z,461.00
2023-05-03T02:40:38.404Z,465.00
2023-05-03T02:41:33.549Z,463.00
2023-05-03T02:42:28.858Z,461.00
2023-05-03T02:43:24.009Z,470.00
2023-05-03T02:44:19.364Z,461.00
2023-05-03T02:45:14.477Z,461.00
2023-05-03T02:46:09.675Z,463.00
2023-05-03T02:47:04.859Z,469.00
2023-05-03T02:48:00.058Z,463.00
2023-05-03T02:48:55.220Z,468.00
2023-05-03T02:49:50.335Z,465.00
2023-05-03T02:50:45.465Z,466.00
2023-05-03T02:51:40.684Z,465.00
2023-05-03T02:52:36.015Z,467.00
2023-05-03T02:53:31.158Z,466.00
2023-05-03T02:54:26.173Z,467.00
2023-05-03T02:55:21.331Z,470.00
2023-05-03T02:56:16.457Z,470.00
2023-05-03T02:57:11.553Z,472.00
2023-05-03T02:58:06.766Z,476.00
2023-05-03T02:59:02.003Z,468.00
2023-05-03T02:59:57.060Z,484.00
2023-05-03T03:00:52.140Z,472.00
2023-05-03T03:01:47.329Z,475.00
2023-05-03T03:02:42.601Z,478.00
2023-05-03T03:03:37.877Z,474.00
2023-05-03T03:04:32.771Z,473.00
2023-05-03T03:05:27.817Z,480.00
2023-05-03T03:06:22.963Z,484.00
2023-05-03T03:07:18.055Z,482.00
2023-05-03T03:08:13.253Z,478.00
2023-05-03T03:09:08.374Z,477.00
2023-05-03T03:10:03.629Z,473.00
2023-05-03T03:10:58.481Z,474.00
2023-05-03T03:11:53.694Z,474.00
2023-05-03T03:12:48.911Z,471.00
2023-05-03T03:13:44.032Z,475.00
2023-05-03T03:14:39.160Z,476.00
2023-05-03T03:15:34.192Z,480.00
2023-05-03T03:16:29.497Z,475.00
2023-05-03T03:17:24.595Z,480.00
2023-05-03T03:18:19.951Z,483.00
2023-05-03T03:19:15.118Z,479.00
2023-05-03T03:20:10.150Z,500.00
2023-05-03T03:21:05.377Z,485.00
2023-05-03T03:22:00.594Z,492.00
2023-05-03T03:22:55.969Z,477.00
2023-05-03T03:23:50.928Z,482.00
2023-05-03T03:24:46.196Z,480.00
2023-05-03T03:25:41.252Z,481.00
2023-05-03T03:26:36.385Z,482.00
2023-05-03T03:27:31.579Z,485.00
2023-05-03T03:28:26.768Z,484.00
2023-05-03T03:29:22.099Z,483.00
2023-05-03T03:30:17.110Z,482.00
2023-05-03T03:31:12.366Z,479.00
2023-05-03T03:32:07.686Z,478.00
2023-05-03T03:33:02.756Z,478.00
2023-05-03T03:33:57.806Z,478.00
2023-05-03T03:34:53.064Z,476.00
2023-05-03T03:35:48.276Z,476.00
2023-05-03T03:36:43.428Z,474.00
2023-05-03T03:37:38.571Z,481.00
2023-05-03T03:38:33.845Z,478.00
2023-05-03T03:39:29.068Z,477.00
2023-05-03T03:40:24.376Z,473.00
2023-05-03T03:41:19.573Z,475.00
2023-05-03T03:42:14.784Z,476.00
2023-05-03T03:43:10.112Z,482.00
2023-05-03T03:44:05.206Z,478.00
2023-05-03T03:45:00.586Z,482.00
2023-05-03T03:45:55.740Z,476.00
2023-05-03T03:46:50.981Z,474.00
2023-05-03T03:47:47.506Z,485.00
2023-05-03T03:48:42.566Z,481.00
2023-05-03T03:49:38.023Z,481.00
2023-05-03T03:50:33.145Z,479.00
2023-05-03T03:51:28.264Z,478.00
2023-05-03T03:52:23.465Z,481.00
2023-05-03T03:53:18.700Z,482.00
2023-05-03T03:54:14.015Z,476.00
2023-05-03T03:55:09.247Z,473.00
2023-05-03T03:56:04.594Z,473.00
2023-05-03T03:56:59.840Z,476.00
2023-05-03T03:57:55.180Z,473.00
2023-05-03T03:58:50.488Z,502.00
2023-05-03T03:59:46.013Z,492.00
2023-05-03T04:00:41.109Z,478.00
2023-05-03T04:01:36.450Z,475.00
2023-05-03T04:02:31.902Z,476.00
2023-05-03T04:03:27.226Z,476.00
2023-05-03T04:04:22.561Z,478.00
2023-05-03T04:05:17.678Z,481.00
2023-05-03T04:06:13.118Z,473.00
2023-05-03T04:07:08.586Z,470.00
2023-05-03T04:08:03.787Z,479.00
2023-05-03T04:08:59.110Z,481.00
2023-05-03T04:09:54.396Z,482.00
2023-05-03T04:10:49.716Z,481.00
2023-05-03T04:11:45.022Z,481.00
2023-05-03T04:12:40.451Z,482.00
2023-05-03T04:13:35.805Z,478.00
2023-05-03T04:14:31.209Z,476.00
2023-05-03T04:15:26.372Z,481.00
2023-05-03T04:16:21.768Z,476.00
2023-05-03T04:17:16.930Z,479.00
2023-05-03T04:18:12.434Z,476.00
2023-05-03T04:19:08.103Z,478.00
2023-05-03T04:20:03.506Z,477.00
2023-05-03T04:20:58.554Z,477.00
2023-05-03T04:21:53.920Z,477.00
2023-05-03T04:22:49.299Z,481.00
2023-05-03T04:23:44.660Z,479.00
2023-05-03T04:24:39.974Z,479.00
2023-05-03T04:25:35.698Z,482.00
2023-05-03T04:26:32.208Z,480.00
2023-05-03T04:27:25.869Z,481.00
2023-05-03T04:28:20.941Z,479.00
2023-05-03T04:29:16.169Z,475.00
2023-05-03T04:30:11.235Z,472.00
2023-05-03T04:31:06.502Z,478.00
2023-05-03T04:32:01.404Z,477.00
2023-05-03T04:32:56.597Z,474.00
2023-05-03T04:33:51.607Z,481.00
2023-05-03T04:34:48.970Z,481.00
2023-05-03T04:35:41.877Z,479.00
2023-05-03T04:36:36.783Z,472.00
2023-05-03T04:37:31.787Z,469.00
2023-05-03T04:38:27.053Z,477.00
2023-05-03T04:39:22.113Z,482.00
2023-05-03T04:40:17.144Z,483.00
2023-05-03T04:41:14.103Z,485.00
2023-05-03T04:42:07.533Z,483.00
2023-05-03T04:43:02.841Z,498.00
2023-05-03T04:43:58.626Z,497.00
2023-05-03T04:44:53.932Z,488.00
2023-05-03T04:45:49.361Z,488.00
2023-05-03T04:46:44.776Z,487.00
2023-05-03T04:47:39.930Z,480.00
2023-05-03T04:48:35.179Z,487.00
2023-05-03T04:49:30.523Z,485.00
2023-05-03T04:50:25.907Z,483.00
2023-05-03T04:51:21.377Z,487.00
2023-05-03T04:52:16.469Z,479.00
2023-05-03T04:53:11.929Z,475.00
2023-05-03T04:54:07.146Z,480.00
2023-05-03T04:55:02.549Z,483.00
2023-05-03T04:55:57.842Z,481.00
2023-05-03T04:56:53.568Z,480.00
2023-05-03T04:57:48.791Z,480.00
2023-05-03T04:58:44.290Z,474.00
2023-05-03T04:59:39.634Z,487.00
2023-05-03T05:00:35.293Z,481.00
2023-05-03T05:01:30.851Z,484.00
2023-05-03T05:02:26.108Z,485.00
2023-05-03T05:03:21.225Z,479.00
2023-05-03T05:04:16.177Z,477.00
2023-05-03T05:05:11.117Z,480.00
2023-05-03T05:06:06.390Z,478.00
2023-05-03T05:07:01.438Z,479.00
2023-05-03T05:07:56.452Z,478.00
2023-05-03T05:08:51.513Z,480.00
2023-05-03T05:09:46.562Z,487.00
2023-05-03T05:10:41.729Z,505.00
2023-05-03T05:11:36.786Z,490.00
2023-05-03T05:12:31.779Z,480.00
2023-05-03T05:13:26.868Z,482.00
2023-05-03T05:14:21.896Z,482.00
2023-05-03T05:15:16.936Z,479.00
2023-05-03T05:16:13.956Z,482.00
2023-05-03T05:17:08.953Z,471.00
2023-05-03T05:18:04.279Z,470.00
2023-05-03T05:18:59.340Z,477.00
2023-05-03T05:19:54.378Z,472.00
2023-05-03T05:20:49.595Z,471.00
2023-05-03T05:21:44.449Z,485.00
2023-05-03T05:22:39.638Z,481.00
2023-05-03T05:23:35.064Z,482.00
2023-05-03T05:24:32.517Z,468.00
2023-05-03T05:25:27.946Z,468.00
2023-05-03T05:26:23.496Z,458.00
2023-05-03T05:27:19.373Z,442.00
2023-05-03T05:28:14.069Z,464.00
2023-05-03T05:29:09.373Z,478.00
2023-05-03T05:30:04.617Z,475.00
2023-05-03T05:30:59.471Z,471.00
2023-05-03T05:31:54.567Z,471.00
2023-05-03T05:32:49.635Z,469.00
2023-05-03T05:33:50.365Z,477.00
2023-05-03T05:34:45.964Z,460.00
2023-05-03T05:35:41.101Z,453.00
2023-05-03T05:36:36.661Z,453.00
2023-05-03T05:37:32.080Z,457.00
2023-05-03T05:38:27.596Z,459.00
2023-05-03T05:39:23.769Z,458.00
2023-05-03T05:40:19.071Z,455.00
2023-05-03T05:41:15.046Z,450.00
2023-05-03T05:42:10.157Z,435.00
2023-05-03T05:43:05.689Z,437.00
2023-05-03T05:44:01.326Z,439.00
2023-05-03T05:44:56.839Z,434.00
2023-05-03T05:45:52.784Z,426.00
2023-05-03T05:46:48.003Z,429.00
2023-05-03T05:47:43.289Z,429.00
2023-05-03T05:48:39.095Z,426.00
2023-05-03T05:49:34.519Z,431.00
2023-05-03T05:50:29.895Z,442.00
2023-05-03T05:51:26.325Z,446.00
2023-05-03T05:52:21.652Z,426.00
2023-05-03T05:53:17.418Z,432.00
2023-05-03T05:54:12.866Z,429.00
2023-05-03T05:55:08.148Z,431.00
2023-05-03T05:56:04.242Z,434.00
2023-05-03T05:56:59.400Z,427.00
2023-05-03T05:57:55.280Z,426.00
2023-05-03T05:58:50.525Z,427.00
2023-05-03T05:59:45.943Z,424.00
2023-05-03T06:00:41.805Z,436.00
2023-05-03T06:01:37.030Z,432.00
2023-05-03T06:02:32.495Z,424.00
2023-05-03T06:03:28.729Z,423.00
2023-05-03T06:04:24.059Z,418.00
2023-05-03T06:05:20.012Z,419.00
2023-05-03T06:06:15.354Z,419.00
2023-05-03T06:07:10.653Z,417.00
2023-05-03T06:08:06.410Z,425.00
2023-05-03T06:09:09.813Z,422.00
2023-05-03T06:09:58.679Z,425.00
2023-05-03T06:10:53.004Z,418.00
2023-05-03T06:11:48.317Z,424.00
2023-05-03T06:12:44.968Z,435.00
2023-05-03T06:13:40.163Z,431.00
2023-05-03T06:14:35.566Z,430.00
2023-05-03T06:15:31.896Z,424.00
2023-05-03T06:16:27.295Z,429.00
2023-05-03T06:17:23.041Z,425.00
2023-05-03T06:18:18.455Z,421.00
2023-05-03T06:19:13.744Z,422.00
2023-05-03T06:20:09.719Z,416.00
2023-05-03T06:21:04.912Z,428.00
2023-05-03T06:22:00.815Z,414.00
2023-05-03T06:22:55.993Z,419.00
2023-05-03T06:23:51.459Z,423.00
2023-05-03T06:24:47.433Z,423.00
2023-05-03T06:25:42.689Z,432.00
2023-05-03T06:26:38.077Z,420.00
2023-05-03T06:27:34.433Z,423.00
2023-05-03T06:28:29.680Z,417.00
2023-05-03T06:29:25.609Z,420.00
2023-05-03T06:30:21.154Z,423.00
2023-05-03T06:31:16.631Z,438.00
2023-05-03T06:32:12.171Z,423.00
2023-05-03T06:33:07.759Z,423.00
2023-05-03T06:34:03.093Z,421.00
2023-05-03T06:34:58.861Z,428.00
2023-05-03T06:35:54.479Z,420.00
2023-05-03T06:36:49.812Z,417.00
2023-05-03T06:37:45.214Z,413.00
2023-05-03T06:38:40.897Z,422.00
2023-05-03T06:39:36.244Z,416.00
2023-05-03T06:40:32.339Z,413.00
2023-05-03T06:41:27.480Z,413.00
2023-05-03T06:42:22.919Z,411.00
2023-05-03T06:43:18.602Z,417.00
2023-05-03T06:44:14.000Z,410.00
2023-05-03T06:45:09.570Z,418.00
2023-05-03T06:46:05.796Z,428.00
2023-05-03T06:47:01.303Z,414.00
2023-05-03T06:47:57.332Z,411.00
2023-05-03T06:48:52.804Z,418.00
2023-05-03T06:49:48.396Z,419.00
2023-05-03T06:50:43.935Z,423.00
2023-05-03T06:51:39.329Z,419.00
2023-05-03T06:52:34.685Z,415.00
2023-05-03T06:53:30.179Z,413.00
2023-05-03T06:54:25.539Z,416.00
2023-05-03T06:55:21.266Z,416.00
2023-05-03T06:56:17.956Z,414.00
2023-05-03T06:57:13.327Z,409.00
2023-05-03T06:58:08.786Z,409.00
2023-05-03T06:59:04.220Z,405.00
2023-05-03T06:59:59.341Z,405.00
2023-05-03T07:00:54.203Z,411.00
2023-05-03T07:01:49.309Z,412.00
2023-05-03T07:02:44.383Z,409.00
2023-05-03T07:03:41.829Z,407.00
2023-05-03T07:04:34.388Z,405.00
2023-05-03T07:05:29.542Z,409.00
2023-05-03T07:06:24.443Z,413.00
2023-05-03T07:07:19.514Z,410.00
2023-05-03T07:08:14.524Z,417.00
2023-05-03T07:09:09.514Z,414.00
2023-05-03T07:10:05.267Z,413.00
2023-05-03T07:10:59.673Z,416.00
2023-05-03T07:11:57.502Z,416.00
2023-05-03T07:12:52.469Z,414.00
2023-05-03T07:13:47.599Z,411.00
2023-05-03T07:14:42.595Z,417.00
2023-05-03T07:15:37.728Z,418.00
2023-05-03T07:16:32.732Z,419.00
2023-05-03T07:17:27.851Z,420.00
2023-05-03T07:18:22.769Z,414.00
2023-05-03T07:19:17.929Z,413.00
2023-05-03T07:20:13.175Z,419.00
2023-05-03T07:21:09.433Z,412.00
2023-05-03T07:22:03.134Z,414.00
2023-05-03T07:22:58.295Z,408.00
2023-05-03T07:23:53.280Z,417.00
2023-05-03T07:24:48.460Z,412.00
2023-05-03T07:25:43.426Z,412.00
2023-05-03T07:26:38.582Z,410.00
2023-05-03T07:27:33.661Z,414.00
2023-05-03T07:28:28.806Z,412.00
2023-05-03T07:29:25.670Z,419.00
2023-05-03T07:30:21.094Z,415.00
2023-05-03T07:31:15.899Z,410.00
2023-05-03T07:32:11.181Z,408.00
2023-05-03T07:33:06.268Z,413.00
2023-05-03T07:34:01.351Z,413.00
2023-05-03T07:34:56.614Z,408.00
2023-05-03T07:35:51.516Z,402.00
2023-05-03T07:36:46.772Z,409.00
2023-05-03T07:37:42.301Z,408.00
2023-05-03T07:38:37.657Z,406.00
2023-05-03T07:39:33.217Z,410.00
2023-05-03T07:40:28.604Z,411.00
2023-05-03T07:41:24.255Z,413.00
2023-05-03T07:42:19.656Z,409.00
2023-05-03T07:43:15.155Z,414.00
2023-05-03T07:44:10.683Z,422.00
2023-05-03T07:45:07.216Z,413.00
2023-05-03T07:46:01.624Z,416.00
2023-05-03T07:46:57.028Z,410.00
2023-05-03T07:47:52.434Z,412.00
2023-05-03T07:48:47.793Z,415.00
2023-05-03T07:49:43.377Z,419.00
2023-05-03T07:50:38.749Z,415.00
2023-05-03T07:52:59.321Z,409.00
2023-05-03T07:53:54.711Z,416.00
2023-05-03T07:54:50.249Z,419.00
2023-05-03T07:55:45.570Z,414.00
2023-05-03T07:56:40.939Z,416.00
2023-05-03T07:57:36.612Z,413.00
2023-05-03T07:58:40.132Z,411.00
2023-05-03T07:59:28.466Z,411.00
2023-05-03T08:00:22.773Z,417.00
2023-05-03T08:01:18.421Z,410.00
2023-05-03T08:02:13.881Z,410.00
2023-05-03T08:03:09.319Z,416.00
2023-05-03T08:04:04.776Z,408.00
2023-05-03T08:05:00.512Z,414.00
2023-05-03T08:05:55.578Z,425.00
2023-05-03T08:06:51.180Z,422.00
2023-05-03T08:07:46.548Z,435.00
2023-05-03T08:08:42.097Z,436.00
2023-05-03T08:09:37.587Z,431.00
2023-05-03T08:10:32.989Z,425.00
2023-05-03T08:11:28.558Z,413.00
2023-05-03T08:12:24.134Z,425.00
2023-05-03T08:13:19.610Z,414.00
2023-05-03T08:14:15.010Z,420.00
2023-05-03T08:15:10.402Z,423.00
2023-05-03T08:16:06.126Z,420.00
2023-05-03T08:17:01.359Z,420.00
2023-05-03T08:17:56.947Z,413.00
2023-05-03T08:18:52.551Z,415.00
2023-05-03T08:19:48.150Z,416.00
2023-05-03T08:20:43.396Z,414.00
2023-05-03T08:21:38.817Z,413.00
2023-05-03T08:22:34.180Z,416.00
2023-05-03T08:23:29.864Z,413.00
2023-05-03T08:24:25.487Z,414.00
2023-05-03T08:25:20.808Z,412.00
2023-05-03T08:26:16.188Z,416.00
2023-05-03T08:27:11.641Z,412.00
2023-05-03T08:28:07.026Z,433.00
2023-05-03T08:29:02.723Z,421.00
2023-05-03T08:29:57.962Z,414.00
2023-05-03T08:30:53.637Z,415.00
2023-05-03T08:31:49.248Z,420.00
2023-05-03T08:32:44.749Z,419.00
2023-05-03T08:33:40.029Z,417.00
2023-05-03T08:34:35.460Z,413.00
2023-05-03T08:35:30.976Z,414.00
2023-05-03T08:36:26.390Z,423.00
2023-05-03T08:37:21.924Z,419.00
2023-05-03T08:38:17.135Z,420.00
2023-05-03T08:39:12.632Z,421.00
2023-05-03T08:40:07.947Z,419.00
2023-05-03T08:41:03.425Z,417.00
2023-05-03T08:41:58.860Z,419.00
2023-05-03T08:42:54.274Z,419.00
2023-05-03T08:43:49.788Z,429.00
2023-05-03T08:44:45.267Z,426.00
2023-05-03T08:45:40.500Z,424.00
2023-05-03T08:46:35.920Z,426.00
2023-05-03T08:47:31.424Z,424.00
2023-05-03T08:48:27.115Z,419.00
2023-05-03T08:49:22.167Z,417.00
2023-05-03T08:50:17.555Z,419.00
2023-05-03T08:51:12.888Z,424.00
2023-05-03T08:52:08.317Z,422.00
2023-05-03T08:53:03.683Z,427.00
2023-05-03T08:53:59.259Z,409.00
2023-05-03T08:54:54.465Z,414.00
2023-05-03T08:55:49.869Z,416.00
2023-05-03T08:56:45.210Z,430.00
2023-05-03T08:57:40.712Z,426.00
2023-05-03T08:58:36.139Z,428.00
2023-05-03T08:59:31.503Z,420.00
2023-05-03T09:00:27.020Z,418.00
2023-05-03T09:01:22.537Z,411.00
2023-05-03T09:02:17.731Z,417.00
2023-05-03T09:03:13.470Z,416.00
2023-05-03T09:04:08.757Z,419.00
2023-05-03T09:05:04.162Z,423.00
2023-05-03T09:05:59.235Z,422.00
2023-05-03T09:06:54.661Z,428.00
2023-05-03T09:07:50.036Z,420.00
2023-05-03T09:08:45.411Z,426.00
2023-05-03T09:09:40.623Z,424.00
2023-05-03T09:10:36.020Z,423.00
2023-05-03T09:11:31.382Z,421.00
2023-05-03T09:12:27.019Z,415.00
2023-05-03T09:13:22.439Z,430.00
2023-05-03T09:14:17.855Z,421.00
2023-05-03T09:15:13.195Z,423.00
2023-05-03T09:16:08.659Z,423.00
2023-05-03T09:17:04.022Z,427.00
2023-05-03T09:17:59.452Z,429.00
2023-05-03T09:18:54.863Z,431.00
2023-05-03T09:19:50.245Z,424.00
2023-05-03T09:20:45.617Z,421.00
2023-05-03T09:21:40.996Z,418.00
2023-05-03T09:22:36.402Z,415.00
2023-05-03T09:23:32.117Z,419.00
2023-05-03T09:24:27.535Z,418.00
2023-05-03T09:25:23.052Z,415.00
2023-05-03T09:26:18.430Z,416.00
2023-05-03T09:27:13.783Z,421.00
2023-05-03T09:28:09.298Z,419.00
2023-05-03T09:29:04.748Z,412.00
2023-05-03T09:30:00.244Z,412.00
2023-05-03T09:30:55.632Z,415.00
2023-05-03T09:31:51.111Z,411.00
2023-05-03T09:32:46.616Z,415.00
2023-05-03T09:33:42.017Z,417.00
2023-05-03T09:34:37.583Z,415.00
2023-05-03T09:35:32.909Z,419.00
2023-05-03T09:36:28.385Z,417.00
2023-05-03T09:37:23.829Z,419.00
2023-05-03T09:38:19.161Z,416.00
2023-05-03T09:39:14.682Z,420.00
2023-05-03T09:40:10.152Z,418.00
2023-05-03T09:41:05.485Z,419.00
2023-05-03T09:42:00.771Z,417.00
2023-05-03T09:42:56.190Z,425.00
2023-05-03T09:43:51.680Z,419.00
2023-05-03T09:44:47.228Z,420.00
2023-05-03T09:45:42.769Z,431.00
2023-05-03T09:46:38.157Z,416.00
2023-05-03T09:47:33.639Z,420.00
2023-05-03T09:48:29.069Z,430.00
2023-05-03T09:49:24.563Z,429.00
2023-05-03T09:50:20.136Z,425.00
2023-05-03T09:51:15.734Z,418.00
2023-05-03T09:52:11.312Z,434.00
2023-05-03T09:53:06.849Z,430.00
2023-05-03T09:54:02.309Z,429.00
2023-05-03T09:54:57.913Z,424.00
2023-05-03T09:55:53.150Z,425.00
2023-05-03T09:56:48.846Z,421.00
2023-05-03T09:57:44.196Z,419.00
2023-05-03T09:58:39.641Z,418.00
2023-05-03T09:59:35.358Z,425.00
2023-05-03T10:00:30.694Z,418.00
2023-05-03T10:01:26.040Z,440.00
2023-05-03T10:02:21.723Z,434.00
2023-05-03T10:03:17.102Z,441.00
2023-05-03T10:04:12.734Z,435.00
2023-05-03T10:05:07.950Z,437.00
2023-05-03T10:06:03.497Z,439.00
2023-05-03T10:06:58.924Z,444.00
2023-05-03T10:07:54.202Z,434.00
2023-05-03T10:08:49.630Z,434.00
2023-05-03T10:09:45.155Z,440.00
2023-05-03T10:10:40.496Z,435.00
2023-05-03T10:11:36.152Z,457.00
2023-05-03T10:12:31.608Z,441.00
2023-05-03T10:13:26.959Z,444.00
2023-05-03T10:14:22.666Z,435.00
2023-05-03T10:15:18.202Z,439.00
2023-05-03T10:16:13.614Z,447.00
2023-05-03T10:17:09.103Z,441.00
2023-05-03T10:18:04.520Z,435.00
2023-05-03T10:19:00.002Z,437.00
2023-05-03T10:19:55.901Z,437.00
2023-05-03T10:20:50.891Z,446.00
2023-05-03T10:21:46.325Z,434.00
2023-05-03T10:22:41.866Z,437.00
2023-05-03T10:23:37.354Z,438.00
2023-05-03T10:24:32.711Z,429.00
2023-05-03T10:25:28.252Z,437.00
2023-05-03T10:26:23.816Z,437.00
2023-05-03T10:27:19.234Z,440.00
2023-05-03T10:28:14.731Z,440.00
2023-05-03T10:29:10.205Z,438.00
2023-05-03T10:30:05.741Z,434.00
2023-05-03T10:31:01.075Z,437.00
2023-05-03T10:31:56.497Z,437.00
2023-05-03T10:32:51.941Z,439.00
2023-05-03T10:33:47.216Z,436.00
2023-05-03T10:34:43.422Z,435.00
2023-05-03T10:35:38.301Z,438.00
2023-05-03T10:36:48.502Z,430.00
2023-05-03T10:37:30.199Z,432.00
2023-05-03T10:38:24.725Z,437.00
2023-05-03T10:39:20.356Z,432.00
2023-05-03T10:40:15.938Z,440.00
2023-05-03T10:41:11.212Z,434.00
2023-05-03T10:42:06.531Z,440.00
2023-05-03T10:43:02.031Z,436.00
2023-05-03T10:43:57.549Z,435.00
2023-05-03T10:44:53.027Z,437.00
2023-05-03T10:45:49.011Z,432.00
2023-05-03T10:46:43.910Z,436.00
2023-05-03T10:47:39.412Z,442.00
2023-05-03T10:48:34.778Z,439.00
2023-05-03T10:49:30.137Z,438.00
2023-05-03T10:50:25.678Z,437.00
2023-05-03T10:51:21.099Z,438.00
2023-05-03T10:52:16.339Z,438.00
2023-05-03T10:53:11.693Z,435.00
2023-05-03T10:54:07.202Z,432.00
2023-05-03T10:55:02.907Z,435.00
2023-05-03T10:55:58.584Z,429.00
2023-05-03T10:56:53.936Z,430.00
2023-05-03T10:57:49.314Z,432.00
2023-05-03T10:58:44.900Z,437.00
2023-05-03T10:59:40.280Z,436.00
2023-05-03T11:00:35.742Z,444.00
2023-05-03T11:01:31.240Z,442.00
2023-05-03T11:02:26.729Z,460.00
2023-05-03T11:03:22.248Z,459.00
2023-05-03T11:04:17.673Z,459.00
2023-05-03T11:05:13.165Z,468.00
2023-05-03T11:06:08.800Z,458.00
2023-05-03T11:07:04.048Z,457.00
2023-05-03T11:07:59.509Z,459.00
2023-05-03T11:08:55.038Z,455.00
2023-05-03T11:09:50.433Z,465.00
2023-05-03T11:10:45.780Z,453.00
2023-05-03T11:11:41.537Z,458.00
2023-05-03T11:12:36.736Z,455.00
2023-05-03T11:13:32.124Z,446.00
2023-05-03T11:14:27.510Z,467.00
2023-05-03T11:15:22.876Z,462.00
2023-05-03T11:16:18.398Z,457.00
2023-05-03T11:17:13.906Z,459.00
2023-05-03T11:18:09.303Z,454.00
2023-05-03T11:19:04.955Z,453.00
2023-05-03T11:20:00.159Z,456.00
2023-05-03T11:20:55.655Z,458.00
2023-05-03T11:21:51.205Z,463.00
2023-05-03T11:22:47.327Z,457.00
2023-05-03T11:23:41.984Z,458.00
2023-05-03T11:24:37.385Z,455.00
2023-05-03T11:25:32.855Z,457.00
2023-05-03T11:26:28.403Z,464.00
2023-05-03T11:27:23.639Z,477.00
2023-05-03T11:28:18.999Z,476.00
2023-05-03T11:29:14.664Z,481.00
2023-05-03T11:30:09.889Z,482.00
2023-05-03T11:31:05.379Z,475.00
2023-05-03T11:32:00.915Z,473.00
2023-05-03T11:32:56.484Z,477.00
2023-05-03T11:33:51.930Z,475.00